createdAt,value
2019-05-22T00:02:03.818Z,94.10
2019-05-22T00:04:37.690Z,94.00
2019-05-22T00:07:05.837Z,94.00
2019-05-22T00:09:34.446Z,93.80
2019-05-22T00:12:00.543Z,93.70
2019-05-22T00:14:27.456Z,93.70
2019-05-22T00:16:55.783Z,93.50
2019-05-22T00:19:23.765Z,93.10
2019-05-22T00:21:52.170Z,93.00
2019-05-22T00:24:19.028Z,93.00
2019-05-22T00:26:45.933Z,93.00
2019-05-22T00:29:12.520Z,93.10
2019-05-22T00:31:39.633Z,93.10
2019-05-22T00:34:06.199Z,93.20
2019-05-22T00:36:33.113Z,93.10
2019-05-22T00:39:00.226Z,93.20
2019-05-22T00:41:30.707Z,93.30
2019-05-22T00:43:57.587Z,93.30
2019-05-22T00:46:24.625Z,93.30
2019-05-22T00:48:53.012Z,93.20
2019-05-22T00:51:21.098Z,93.20
2019-05-22T00:53:51.039Z,93.30
2019-05-22T00:56:37.464Z,93.30
2019-05-22T00:59:17.073Z,93.40
2019-05-22T01:01:45.191Z,93.20
2019-05-22T01:04:13.383Z,93.10
2019-05-22T01:06:43.292Z,93.00
2019-05-22T01:09:16.105Z,92.70
2019-05-22T01:11:44.419Z,92.50
2019-05-22T01:14:12.324Z,92.50
2019-05-22T01:16:38.899Z,92.50
2019-05-22T01:19:06.930Z,92.40
2019-05-22T01:21:34.031Z,92.30
2019-05-22T01:24:00.701Z,92.30
2019-05-22T01:26:28.617Z,92.30
2019-05-22T01:28:55.523Z,92.30
2019-05-22T01:31:23.515Z,92.30
2019-05-22T01:33:51.551Z,92.20
2019-05-22T01:36:23.034Z,92.20
2019-05-22T01:38:52.336Z,92.30
2019-05-22T01:41:26.735Z,92.30
2019-05-22T01:43:56.154Z,92.40
2019-05-22T01:46:24.354Z,92.40
2019-05-22T01:48:55.376Z,92.40
2019-05-22T01:51:21.458Z,92.40
2019-05-22T01:53:49.457Z,92.50
2019-05-22T01:56:16.510Z,92.60
2019-05-22T01:58:44.604Z,92.60
2019-05-22T02:01:13.992Z,92.70
2019-05-22T02:03:40.226Z,92.70
2019-05-22T02:06:06.609Z,92.80
2019-05-22T02:08:37.186Z,92.80
2019-05-22T02:11:05.288Z,92.80
2019-05-22T02:13:43.917Z,92.80
2019-05-22T02:16:10.905Z,92.90
2019-05-22T02:18:38.707Z,93.00
2019-05-22T02:21:06.225Z,93.00
2019-05-22T02:23:33.035Z,92.90
2019-05-22T02:26:03.841Z,92.90
2019-05-22T02:28:30.358Z,92.80
2019-05-22T02:30:56.576Z,92.80
2019-05-22T02:33:24.336Z,92.80
2019-05-22T02:35:50.652Z,92.90
2019-05-22T02:38:17.233Z,92.90
2019-05-22T02:40:45.429Z,92.90
2019-05-22T02:43:12.134Z,93.20
2019-05-22T02:45:40.826Z,92.90
2019-05-22T02:48:07.132Z,93.30
2019-05-22T02:50:33.937Z,93.10
2019-05-22T02:53:03.168Z,93.10
2019-05-22T02:55:30.696Z,93.20
2019-05-22T02:57:56.965Z,93.30
2019-05-22T03:00:28.784Z,93.30
2019-05-22T03:02:55.201Z,93.50
2019-05-22T03:05:22.290Z,93.50
2019-05-22T03:07:48.622Z,93.50
2019-05-22T03:10:17.964Z,93.50
2019-05-22T03:12:44.975Z,93.60
2019-05-22T03:15:15.531Z,93.60
2019-05-22T03:17:43.034Z,93.50
2019-05-22T03:20:17.691Z,93.50
2019-05-22T03:23:04.359Z,93.30
2019-05-22T03:25:32.570Z,93.10
2019-05-22T03:28:00.550Z,93.00
2019-05-22T03:30:32.048Z,93.00
2019-05-22T03:33:01.232Z,92.70
2019-05-22T03:35:30.815Z,92.60
2019-05-22T03:37:58.428Z,92.60
2019-05-22T03:40:26.036Z,92.60
2019-05-22T03:42:52.247Z,92.50
2019-05-22T03:45:18.620Z,92.40
2019-05-22T03:47:45.643Z,92.30
2019-05-22T03:50:13.135Z,92.50
2019-05-22T03:52:39.453Z,92.30
2019-05-22T03:55:08.870Z,92.30
2019-05-22T03:57:37.780Z,92.30
2019-05-22T04:00:07.376Z,92.40
2019-05-22T04:02:34.121Z,92.40
2019-05-22T04:05:04.067Z,92.50
2019-05-22T04:07:30.719Z,92.60
2019-05-22T04:09:57.759Z,92.70
2019-05-22T04:12:24.501Z,92.70
2019-05-22T04:14:50.856Z,92.70
2019-05-22T04:17:18.058Z,92.70
2019-05-22T04:19:50.403Z,92.90
2019-05-22T04:22:13.170Z,92.80
2019-05-22T04:24:40.989Z,92.80
2019-05-22T04:27:11.763Z,92.70
2019-05-22T04:29:40.109Z,92.70
2019-05-22T04:32:24.786Z,92.70
2019-05-22T04:34:52.528Z,92.80
2019-05-22T04:37:19.548Z,92.80
2019-05-22T04:39:48.493Z,92.80
2019-05-22T04:42:15.264Z,92.90
2019-05-22T04:44:57.961Z,93.10
2019-05-22T04:47:24.110Z,93.10
2019-05-22T04:50:06.261Z,93.10
2019-05-22T04:52:18.367Z,93.00
2019-05-22T04:54:44.557Z,93.00
2019-05-22T04:57:11.068Z,92.90
2019-05-22T04:59:38.301Z,92.90
2019-05-22T05:02:04.529Z,92.90
2019-05-22T05:04:31.211Z,92.80
2019-05-22T05:06:57.826Z,92.70
2019-05-22T05:09:24.824Z,92.70
2019-05-22T05:11:52.621Z,92.60
2019-05-22T05:14:18.849Z,92.50
2019-05-22T05:16:46.238Z,92.00
2019-05-22T05:19:12.538Z,91.80
2019-05-22T05:21:41.093Z,91.50
2019-05-22T05:24:07.208Z,91.50
2019-05-22T05:26:35.396Z,91.50
2019-05-22T05:29:02.220Z,91.20
2019-05-22T05:31:29.411Z,91.10
2019-05-22T05:34:07.874Z,90.90
2019-05-22T05:36:34.578Z,90.70
2019-05-22T05:39:06.489Z,90.60
2019-05-22T05:41:32.681Z,90.60
2019-05-22T05:43:59.171Z,90.50
2019-05-22T05:46:26.456Z,90.50
2019-05-22T05:48:54.379Z,90.60
2019-05-22T05:51:21.524Z,90.50
2019-05-22T05:53:58.201Z,90.40
2019-05-22T05:56:25.021Z,90.30
2019-05-22T05:58:51.263Z,90.00
2019-05-22T06:01:20.968Z,90.10
2019-05-22T06:03:47.549Z,89.20
2019-05-22T06:06:25.096Z,89.40
2019-05-22T06:08:56.586Z,89.00
2019-05-22T06:11:32.890Z,89.00
2019-05-22T06:14:01.312Z,89.30
2019-05-22T06:16:50.312Z,88.20
2019-05-22T06:19:17.278Z,87.80
2019-05-22T06:21:47.875Z,87.90
2019-05-22T06:24:25.585Z,87.80
2019-05-22T06:26:58.536Z,88.30
2019-05-22T06:29:32.511Z,87.30
2019-05-22T06:32:07.434Z,86.90
2019-05-22T06:34:35.279Z,86.70
2019-05-22T06:37:14.339Z,86.20
2019-05-22T06:39:41.168Z,85.40
2019-05-22T06:42:08.049Z,85.30
2019-05-22T06:44:35.192Z,85.50
2019-05-22T06:47:02.374Z,85.70
2019-05-22T06:49:35.525Z,85.70
2019-05-22T06:52:06.801Z,86.30
2019-05-22T06:54:33.125Z,86.60
2019-05-22T06:56:59.627Z,87.00
2019-05-22T06:59:26.452Z,87.20
2019-05-22T07:02:01.075Z,87.70
2019-05-22T07:04:22.107Z,88.10
2019-05-22T07:06:48.810Z,88.10
2019-05-22T07:09:16.109Z,88.40
2019-05-22T07:11:43.439Z,88.30
2019-05-22T07:14:09.916Z,88.20
2019-05-22T07:16:36.767Z,88.50
2019-05-22T07:19:06.765Z,88.50
2019-05-22T07:21:34.263Z,88.50
2019-05-22T07:24:01.277Z,88.50
2019-05-22T07:26:27.403Z,88.00
2019-05-22T07:28:54.892Z,87.30
2019-05-22T07:31:21.400Z,86.90
2019-05-22T07:33:51.327Z,87.10
2019-05-22T07:36:20.044Z,87.20
2019-05-22T07:38:46.350Z,86.90
2019-05-22T07:41:12.952Z,87.20
2019-05-22T07:43:41.639Z,87.30
2019-05-22T07:46:07.775Z,87.20
2019-05-22T07:48:34.866Z,86.40
2019-05-22T07:51:01.689Z,85.80
2019-05-22T07:53:28.274Z,85.70
2019-05-22T07:55:56.983Z,85.20
2019-05-22T07:58:25.582Z,85.00
2019-05-22T08:00:53.400Z,84.30
2019-05-22T08:03:20.895Z,83.80
2019-05-22T08:05:52.657Z,83.40
2019-05-22T08:08:19.764Z,83.20
2019-05-22T08:10:46.824Z,83.10
2019-05-22T08:13:14.373Z,83.10
2019-05-22T08:15:41.470Z,83.70
2019-05-22T08:18:09.147Z,83.00
2019-05-22T08:20:35.749Z,83.00
2019-05-22T08:23:02.083Z,82.90
2019-05-22T08:25:29.087Z,83.00
2019-05-22T08:27:56.967Z,82.50
2019-05-22T08:30:24.151Z,81.30
2019-05-22T08:32:51.461Z,81.60
2019-05-22T08:35:18.109Z,81.00
2019-05-22T08:37:44.678Z,80.70
2019-05-22T08:40:13.147Z,80.70
2019-05-22T08:42:40.470Z,81.20
2019-05-22T08:45:07.879Z,80.50
2019-05-22T08:47:34.288Z,79.30
2019-05-22T08:50:00.500Z,79.60
2019-05-22T08:52:28.717Z,78.70
2019-05-22T08:54:55.218Z,78.40
2019-05-22T08:57:21.785Z,78.10
2019-05-22T08:59:48.168Z,77.50
2019-05-22T09:02:15.117Z,77.30
2019-05-22T09:04:41.821Z,78.40
2019-05-22T09:07:07.913Z,78.40
2019-05-22T09:09:34.114Z,78.90
2019-05-22T09:12:00.410Z,79.10
2019-05-22T09:14:26.607Z,78.10
2019-05-22T09:16:53.994Z,77.30
2019-05-22T09:19:20.402Z,74.50
2019-05-22T09:21:46.500Z,73.50
2019-05-22T09:24:13.932Z,73.30
2019-05-22T09:26:40.719Z,72.20
2019-05-22T09:29:07.116Z,71.70
2019-05-22T09:31:33.296Z,72.40
2019-05-22T09:33:59.650Z,72.90
2019-05-22T09:36:26.011Z,72.80
2019-05-22T09:38:52.785Z,72.80
2019-05-22T09:41:20.264Z,71.90
2019-05-22T09:43:46.355Z,72.30
2019-05-22T09:46:13.196Z,72.20
2019-05-22T09:48:39.395Z,71.90
2019-05-22T09:51:05.798Z,71.80
2019-05-22T09:53:32.081Z,72.20
2019-05-22T09:55:59.202Z,73.20
2019-05-22T09:58:25.714Z,73.90
2019-05-22T10:00:52.114Z,72.90
2019-05-22T10:03:20.700Z,72.60
2019-05-22T10:05:47.175Z,73.10
2019-05-22T10:08:13.306Z,73.90
2019-05-22T10:10:39.590Z,73.80
2019-05-22T10:13:06.128Z,73.00
2019-05-22T10:15:33.869Z,70.20
2019-05-22T10:18:00.648Z,70.50
2019-05-22T10:20:27.780Z,70.50
2019-05-22T10:22:53.926Z,70.30
2019-05-22T10:25:20.424Z,69.90
2019-05-22T10:27:48.031Z,69.40
2019-05-22T10:30:22.133Z,70.90
2019-05-22T10:32:49.478Z,71.40
2019-05-22T10:35:17.805Z,70.10
2019-05-22T10:37:44.158Z,67.70
2019-05-22T10:40:13.058Z,67.00
2019-05-22T10:42:39.258Z,65.50
2019-05-22T10:45:06.142Z,66.30
2019-05-22T10:47:32.583Z,67.10
2019-05-22T10:49:59.067Z,65.70
2019-05-22T10:52:25.286Z,64.70
2019-05-22T10:54:51.690Z,63.80
2019-05-22T10:57:18.098Z,63.60
2019-05-22T10:59:44.305Z,64.30
2019-05-22T11:02:11.379Z,66.40
2019-05-22T11:04:39.979Z,65.80
2019-05-22T11:07:07.437Z,66.00
2019-05-22T11:09:34.360Z,67.10
2019-05-22T11:12:03.493Z,67.80
2019-05-22T11:14:30.908Z,68.20
2019-05-22T11:16:57.191Z,67.40
2019-05-22T11:19:23.607Z,68.30
2019-05-22T11:21:49.798Z,67.60
2019-05-22T11:24:16.285Z,67.70
2019-05-22T11:26:43.096Z,65.50
2019-05-22T11:29:09.888Z,65.00
2019-05-22T11:31:36.691Z,65.90
2019-05-22T11:34:03.820Z,66.00
2019-05-22T11:36:30.717Z,64.20
2019-05-22T11:38:57.109Z,65.00
2019-05-22T11:41:24.308Z,64.70
2019-05-22T11:43:51.362Z,63.70
2019-05-22T11:46:17.733Z,62.50
2019-05-22T11:48:44.537Z,61.40
2019-05-22T11:51:11.537Z,58.40
2019-05-22T11:53:37.864Z,57.30
2019-05-22T11:56:04.070Z,57.00
2019-05-22T11:58:30.554Z,55.80
2019-05-22T12:00:56.875Z,55.40
2019-05-22T12:03:24.082Z,55.20
2019-05-22T12:05:51.202Z,53.40
2019-05-22T12:08:17.788Z,51.30
2019-05-22T12:10:44.234Z,50.00
2019-05-22T12:13:11.905Z,51.90
2019-05-22T12:15:38.736Z,52.60
2019-05-22T12:18:07.027Z,51.90
2019-05-22T12:20:34.616Z,49.70
2019-05-22T12:23:04.730Z,49.70
2019-05-22T12:25:30.995Z,48.70
2019-05-22T12:27:57.177Z,46.90
2019-05-22T12:30:23.982Z,46.90
2019-05-22T12:32:50.916Z,47.10
2019-05-22T12:35:17.827Z,46.70
2019-05-22T12:37:44.147Z,48.40
2019-05-22T12:40:15.958Z,48.30
2019-05-22T12:42:43.948Z,48.00
2019-05-22T12:45:12.646Z,46.90
2019-05-22T12:47:40.532Z,47.40
2019-05-22T12:50:07.953Z,47.60
2019-05-22T12:52:34.494Z,48.60
2019-05-22T12:55:01.318Z,48.90
2019-05-22T12:57:28.392Z,54.20
2019-05-22T12:59:56.006Z,56.40
2019-05-22T13:02:22.195Z,56.70
2019-05-22T13:04:48.607Z,55.90
2019-05-22T13:07:16.125Z,55.10
2019-05-22T13:09:42.238Z,55.10
2019-05-22T13:12:09.634Z,56.30
2019-05-22T13:14:35.844Z,55.60
2019-05-22T13:17:03.231Z,55.20
2019-05-22T13:19:31.807Z,54.10
2019-05-22T13:21:59.993Z,55.10
2019-05-22T13:24:27.453Z,54.10
2019-05-22T13:26:54.602Z,53.30
2019-05-22T13:29:21.918Z,53.00
2019-05-22T13:31:49.003Z,53.00
2019-05-22T13:34:16.244Z,51.70
2019-05-22T13:36:44.655Z,50.80
2019-05-22T13:39:11.187Z,50.70
2019-05-22T13:41:38.716Z,50.70
2019-05-22T13:44:06.327Z,51.30
2019-05-22T13:46:33.745Z,50.90
2019-05-22T13:48:59.851Z,50.00
2019-05-22T13:51:26.872Z,48.30
2019-05-22T13:53:53.251Z,47.10
2019-05-22T13:56:20.363Z,47.10
2019-05-22T13:58:47.578Z,46.20
2019-05-22T14:01:14.004Z,45.50
2019-05-22T14:03:41.469Z,45.30
2019-05-22T14:06:07.988Z,45.20
2019-05-22T14:08:34.424Z,44.60
2019-05-22T14:11:00.731Z,45.50
2019-05-22T14:13:27.213Z,45.60
2019-05-22T14:15:56.872Z,45.30
2019-05-22T14:18:21.978Z,45.80
2019-05-22T14:20:48.489Z,45.00
2019-05-22T14:23:15.181Z,44.80
2019-05-22T14:25:42.385Z,45.00
2019-05-22T14:28:09.196Z,45.80
2019-05-22T14:30:36.323Z,46.20
2019-05-22T14:33:05.089Z,42.70
2019-05-22T14:35:47.500Z,40.00
2019-05-22T14:38:04.465Z,40.00
2019-05-22T14:40:31.090Z,39.90
2019-05-22T14:42:57.307Z,42.10
2019-05-22T14:45:23.839Z,43.40
2019-05-22T14:47:50.222Z,45.00
2019-05-22T14:50:16.772Z,46.00
2019-05-22T14:52:43.046Z,45.80
2019-05-22T14:55:10.114Z,45.90
2019-05-22T14:57:37.215Z,45.10
2019-05-22T15:00:07.236Z,45.10
2019-05-22T15:02:33.919Z,43.90
2019-05-22T15:05:00.420Z,42.90
2019-05-22T15:07:26.720Z,43.40
2019-05-22T15:09:53.043Z,41.90
2019-05-22T15:12:19.509Z,42.40
2019-05-22T15:14:45.692Z,40.20
2019-05-22T15:17:31.049Z,39.10
2019-05-22T15:20:00.014Z,39.00
2019-05-22T15:22:21.957Z,37.90
2019-05-22T15:24:49.363Z,34.90
2019-05-22T15:27:16.393Z,34.30
2019-05-22T15:29:42.711Z,35.60
2019-05-22T15:32:09.971Z,36.20
2019-05-22T15:34:38.634Z,36.70
2019-05-22T15:37:05.895Z,37.40
2019-05-22T15:39:33.444Z,35.60
2019-05-22T15:41:59.932Z,35.00
2019-05-22T15:44:26.862Z,35.10
2019-05-22T15:46:53.580Z,35.20
2019-05-22T15:49:20.299Z,35.80
2019-05-22T15:51:48.098Z,37.10
2019-05-22T15:54:17.230Z,38.90
2019-05-22T15:56:44.979Z,40.10
2019-05-22T15:59:12.187Z,41.20
2019-05-22T16:01:40.605Z,42.10
2019-05-22T16:04:10.534Z,42.60
2019-05-22T16:06:36.858Z,42.50
2019-05-22T16:09:07.283Z,42.40
2019-05-22T16:11:34.418Z,41.10
2019-05-22T16:14:04.100Z,38.00
2019-05-22T16:16:34.263Z,36.80
2019-05-22T16:19:06.764Z,37.10
2019-05-22T16:21:36.575Z,37.00
2019-05-22T16:24:04.899Z,36.60
2019-05-22T16:26:31.573Z,34.70
2019-05-22T16:28:59.696Z,33.80
2019-05-22T16:31:26.175Z,34.50
2019-05-22T16:33:53.351Z,35.10
2019-05-22T16:36:21.288Z,35.60
2019-05-22T16:38:48.276Z,35.40
2019-05-22T16:41:14.531Z,35.50
2019-05-22T16:43:49.460Z,35.10
2019-05-22T16:46:12.729Z,34.00
2019-05-22T16:48:41.851Z,33.70
2019-05-22T16:51:09.953Z,33.30
2019-05-22T16:53:37.496Z,32.90
2019-05-22T16:56:05.023Z,33.70
2019-05-22T16:58:33.661Z,33.20
2019-05-22T17:01:03.720Z,33.60
2019-05-22T17:03:31.884Z,34.10
2019-05-22T17:05:57.996Z,34.30
2019-05-22T17:08:28.171Z,34.60
2019-05-22T17:10:57.060Z,34.80
2019-05-22T17:13:24.938Z,35.10
2019-05-22T17:15:51.178Z,35.40
2019-05-22T17:18:19.338Z,35.60
2019-05-22T17:20:48.249Z,36.50
2019-05-22T17:23:15.396Z,36.30
2019-05-22T17:25:42.485Z,36.50
2019-05-22T17:28:08.885Z,37.50
2019-05-22T17:30:36.413Z,38.50
2019-05-22T17:33:03.669Z,39.10
2019-05-22T17:35:30.057Z,39.80
2019-05-22T17:37:57.034Z,40.00
2019-05-22T17:40:23.189Z,41.00
2019-05-22T17:42:52.123Z,40.80
2019-05-22T17:45:20.319Z,41.20
2019-05-22T17:47:49.793Z,41.60
2019-05-22T17:50:26.795Z,41.90
2019-05-22T17:52:46.696Z,42.10
2019-05-22T17:55:14.120Z,41.90
2019-05-22T17:57:40.955Z,41.30
2019-05-22T18:00:12.046Z,41.50
2019-05-22T18:02:39.423Z,42.10
2019-05-22T18:05:07.686Z,42.60
2019-05-22T18:07:34.787Z,42.80
2019-05-22T18:10:01.209Z,43.00
2019-05-22T18:12:28.312Z,43.20
2019-05-22T18:14:54.766Z,43.60
2019-05-22T18:17:21.612Z,43.60
2019-05-22T18:19:47.752Z,44.00
2019-05-22T18:22:16.055Z,43.70
2019-05-22T18:24:42.465Z,44.00
2019-05-22T18:27:08.756Z,44.20
2019-05-22T18:29:37.842Z,44.30
2019-05-22T18:32:06.944Z,44.50
2019-05-22T18:34:33.753Z,45.00
2019-05-22T18:37:00.177Z,44.80
2019-05-22T18:39:26.946Z,44.40
2019-05-22T18:41:54.108Z,44.70
2019-05-22T18:44:20.400Z,44.70
2019-05-22T18:46:47.122Z,45.10
2019-05-22T18:49:13.888Z,45.70
2019-05-22T18:51:40.684Z,46.70
2019-05-22T18:54:08.063Z,46.60
2019-05-22T18:56:34.877Z,47.10
2019-05-22T18:59:04.557Z,48.20
2019-05-22T19:01:31.361Z,47.80
2019-05-22T19:03:57.486Z,48.20
2019-05-22T19:06:30.658Z,48.50
2019-05-22T19:08:54.387Z,48.90
2019-05-22T19:11:21.785Z,49.10
2019-05-22T19:16:45.113Z,49.90
2019-05-22T19:19:11.325Z,50.30
2019-05-22T19:21:37.556Z,50.50
2019-05-22T19:24:04.032Z,50.80
2019-05-22T19:26:30.231Z,51.30
2019-05-22T19:28:56.809Z,52.00
2019-05-22T19:31:24.130Z,51.40
2019-05-22T19:33:50.264Z,52.10
2019-05-22T19:36:16.508Z,52.30
2019-05-22T19:38:44.886Z,52.50
2019-05-22T19:41:11.347Z,52.70
2019-05-22T19:43:37.948Z,53.00
2019-05-22T19:46:04.374Z,53.50
2019-05-22T19:48:32.898Z,54.10
2019-05-22T19:51:04.329Z,54.50
2019-05-22T19:53:31.103Z,54.80
2019-05-22T19:55:57.724Z,55.10
2019-05-22T19:58:25.228Z,55.40
2019-05-22T20:00:52.714Z,55.60
2019-05-22T20:03:20.447Z,56.10
2019-05-22T20:05:47.958Z,56.30
2019-05-22T20:08:14.433Z,56.60
2019-05-22T20:10:40.660Z,56.80
2019-05-22T20:13:07.350Z,57.20
2019-05-22T20:15:33.761Z,57.60
2019-05-22T20:17:59.848Z,58.00
2019-05-22T20:20:26.833Z,58.50
2019-05-22T20:22:53.433Z,58.50
2019-05-22T20:25:21.366Z,58.50
2019-05-22T20:27:47.780Z,58.50
2019-05-22T20:30:15.116Z,58.70
2019-05-22T20:32:42.119Z,58.50
2019-05-22T20:35:09.841Z,58.40
2019-05-22T20:37:36.746Z,58.10
2019-05-22T20:40:06.832Z,58.40
2019-05-22T20:42:33.586Z,58.40
2019-05-22T20:45:01.728Z,58.70
2019-05-22T20:47:28.965Z,59.00
2019-05-22T20:49:56.859Z,59.10
2019-05-22T20:52:24.346Z,59.50
2019-05-22T20:54:51.107Z,60.50
2019-05-22T20:57:20.134Z,60.20
2019-05-22T20:59:47.025Z,60.70
2019-05-22T21:02:13.549Z,61.30
2019-05-22T21:04:43.176Z,61.90
2019-05-22T21:07:10.845Z,62.20
2019-05-22T21:09:37.993Z,62.90
2019-05-22T21:12:06.382Z,63.40
2019-05-22T21:14:34.455Z,63.70
2019-05-22T21:17:00.674Z,63.80
2019-05-22T21:19:28.764Z,64.30
2019-05-22T21:21:56.758Z,65.10
2019-05-22T21:24:22.859Z,65.60
2019-05-22T21:26:49.259Z,66.20
2019-05-22T21:29:15.347Z,66.80
2019-05-22T21:31:42.095Z,66.90
2019-05-22T21:34:08.690Z,67.00
2019-05-22T21:36:34.990Z,67.10
2019-05-22T21:39:03.941Z,68.10
2019-05-22T21:41:30.423Z,67.80
2019-05-22T21:43:56.912Z,68.30
2019-05-22T21:46:23.234Z,69.00
2019-05-22T21:48:50.745Z,69.80
2019-05-22T21:51:17.841Z,70.20
2019-05-22T21:53:44.047Z,70.80
2019-05-22T21:56:10.545Z,71.10
2019-05-22T21:58:38.197Z,71.40
2019-05-22T22:01:09.124Z,71.60
2019-05-22T22:03:43.541Z,71.80
2019-05-22T22:06:13.602Z,72.30
2019-05-22T22:08:40.150Z,72.60
2019-05-22T22:11:08.235Z,73.00
2019-05-22T22:13:36.938Z,73.30
2019-05-22T22:16:03.779Z,73.70
2019-05-22T22:18:30.899Z,74.20
2019-05-22T22:20:58.407Z,74.70
2019-05-22T22:23:25.357Z,75.10
2019-05-22T22:25:52.223Z,75.60
2019-05-22T22:28:18.806Z,75.90
2019-05-22T22:30:52.914Z,76.30
2019-05-22T22:33:22.919Z,76.70
2019-05-22T22:35:50.764Z,77.20
2019-05-22T22:38:18.251Z,77.50
2019-05-22T22:40:44.371Z,77.90
2019-05-22T22:43:11.986Z,78.30
2019-05-22T22:45:42.553Z,78.50
2019-05-22T22:48:09.765Z,78.90
2019-05-22T22:50:37.270Z,79.30
2019-05-22T22:53:05.599Z,79.90
2019-05-22T22:55:31.912Z,80.20
2019-05-22T22:58:15.828Z,80.50
2019-05-22T23:00:39.041Z,80.90
2019-05-22T23:03:10.580Z,81.10
2019-05-22T23:05:38.767Z,81.20
2019-05-22T23:08:08.570Z,81.30
2019-05-22T23:10:35.810Z,81.50
2019-05-22T23:13:04.834Z,81.50
2019-05-22T23:15:31.195Z,82.40
2019-05-22T23:17:59.525Z,81.90
2019-05-22T23:20:25.773Z,82.00
2019-05-22T23:22:51.815Z,82.10
2019-05-22T23:25:19.501Z,82.00
2019-05-22T23:27:46.913Z,81.90
2019-05-22T23:30:15.528Z,81.80
2019-05-22T23:32:44.037Z,81.60
2019-05-22T23:35:13.293Z,81.80
2019-05-22T23:37:41.596Z,82.00
2019-05-22T23:40:08.321Z,82.30
2019-05-22T23:42:38.910Z,83.30
2019-05-22T23:45:13.380Z,82.80
2019-05-22T23:47:50.216Z,83.10
2019-05-22T23:50:16.554Z,83.40
2019-05-22T23:52:42.780Z,83.50
2019-05-22T23:55:09.972Z,83.50
2019-05-22T23:57:36.266Z,83.60
